Time;durP1;ratioP1;P1;durP2;ratioP2;P2;SDS_P1;SDS_P2;PMS_P1;PMS_P2;Temp;Humidity;BMP_temperature;BMP_pressure;BME280_temperature;BME280_humidity;BME280_pressure;Samples;Min_cycle;Max_cycle;Signal;HPM_P1;HPM_P2
2022/07/08 00:02:29;;;;;;;2.70;2.50;;;;;;;16.74;66.65;100083.95;215112;1274;236967;-65
2022/07/08 00:07:31;;;;;;;3.40;2.40;;;;;;;16.70;66.84;100079.37;213656;1274;142017;-64
2022/07/08 00:12:34;;;;;;;2.60;2.40;;;;;;;16.61;67.03;100081.85;213760;1274;140618;-64
2022/07/08 00:17:37;;;;;;;2.60;2.40;;;;;;;16.53;67.27;100087.63;213539;1274;142718;-65
2022/07/08 00:22:41;;;;;;;2.30;2.00;;;;;;;16.49;67.36;100088.17;213386;1274;142965;-64
2022/07/08 00:27:44;;;;;;;2.70;2.60;;;;;;;16.47;67.38;100087.86;213668;1274;140411;-65
2022/07/08 00:32:47;;;;;;;2.80;2.60;;;;;;;16.42;67.44;100090.69;213606;1274;140731;-64
2022/07/08 00:37:50;;;;;;;2.90;2.70;;;;;;;16.37;67.66;100090.08;213728;1274;141652;-64
2022/07/08 00:42:54;;;;;;;2.50;2.30;;;;;;;16.33;67.88;100091.19;213740;1274;141656;-64
2022/07/08 00:47:57;;;;;;;2.80;2.60;;;;;;;16.31;68.14;100098.01;213824;1274;141743;-66
2022/07/08 00:53:00;;;;;;;3.80;2.70;;;;;;;16.29;68.29;100094.98;213489;1274;141031;-63
2022/07/08 00:58:03;;;;;;;2.80;2.60;;;;;;;16.29;68.59;100098.11;213721;1274;140652;-65
2022/07/08 01:03:06;;;;;;;4.60;2.80;;;;;;;16.30;68.64;100104.02;213568;1274;151033;-65
2022/07/08 01:08:10;;;;;;;4.20;3.20;;;;;;;16.32;68.74;100101.67;213456;1274;141462;-64
2022/07/08 01:13:12;;;;;;;3.30;3.10;;;;;;;16.29;68.78;100102.84;213836;1274;140585;-65
2022/07/08 01:18:22;;;;;;;6.40;3.30;;;;;;;16.20;68.93;100103.71;213627;1274;141331;-64
2022/07/08 01:23:26;;;;;;;2.80;2.60;;;;;;;16.13;69.11;100106.23;213494;1274;143062;-65
2022/07/08 01:28:28;;;;;;;3.50;3.20;;;;;;;16.16;69.56;100106.79;213531;1274;140641;-64
2022/07/08 01:33:31;;;;;;;2.90;2.60;;;;;;;16.22;69.65;100105.87;216165;1274;141779;-65
2022/07/08 01:38:34;;;;;;;4.20;3.90;;;;;;;16.27;69.94;100104.07;216339;1274;142643;-65
2022/07/08 01:43:39;;;;;;;6.20;3.90;;;;;;;16.30;69.85;100107.80;216221;1273;139355;-65
2022/07/08 01:48:42;;;;;;;3.60;3.40;;;;;;;16.36;69.92;100113.74;215922;1274;141201;-65
2022/07/08 01:53:48;;;;;;;4.00;3.60;;;;;;;16.43;69.84;100120.18;216040;1274;140245;-65
2022/07/08 01:58:51;;;;;;;3.70;3.50;;;;;;;16.43;69.58;100118.46;216094;1274;140756;-65
2022/07/08 02:03:54;;;;;;;3.70;3.40;;;;;;;16.27;69.58;100121.13;213754;1274;139229;-65
2022/07/08 02:08:56;;;;;;;3.50;3.20;;;;;;;16.10;69.87;100121.98;213896;1274;140029;-64
2022/07/08 02:13:59;;;;;;;3.40;3.10;;;;;;;16.05;70.37;100125.92;213692;1277;140428;-66
2022/07/08 02:19:01;;;;;;;4.20;3.30;;;;;;;16.11;70.58;100131.83;214098;1276;140864;-64
2022/07/08 02:24:04;;;;;;;6.80;4.60;;;;;;;16.04;70.43;100132.90;213528;1274;140415;-65
2022/07/08 02:29:08;;;;;;;4.60;4.20;;;;;;;15.97;70.93;100137.33;213966;1274;139869;-65
2022/07/08 02:34:11;;;;;;;3.90;3.60;;;;;;;15.99;71.17;100140.94;213175;1274;860532;-65
2022/07/08 02:39:14;;;;;;;3.70;3.40;;;;;;;15.90;71.32;100146.22;213691;1274;140672;-66
2022/07/08 02:44:18;;;;;;;3.80;3.50;;;;;;;15.93;71.62;100148.38;213355;1274;142168;-64
2022/07/08 02:49:20;;;;;;;4.30;4.00;;;;;;;15.95;71.70;100153.98;213606;1274;140927;-64
2022/07/08 02:54:23;;;;;;;4.30;3.80;;;;;;;16.00;71.80;100159.93;213467;1274;141521;-65
2022/07/08 02:59:27;;;;;;;4.80;3.70;;;;;;;16.03;71.75;100160.60;213553;1274;141404;-64
2022/07/08 03:04:29;;;;;;;4.80;4.40;;;;;;;16.06;71.87;100164.33;213388;1274;142351;-63
2022/07/08 03:09:32;;;;;;;4.80;4.40;;;;;;;16.06;71.78;100165.17;213552;1274;140630;-64
2022/07/08 03:14:36;;;;;;;4.80;4.30;;;;;;;16.06;71.89;100168.63;213645;1274;141504;-65
2022/07/08 03:19:38;;;;;;;10.70;4.00;;;;;;;16.09;71.79;100169.52;216283;1274;141606;-65
2022/07/08 03:24:41;;;;;;;4.50;4.10;;;;;;;16.17;71.93;100173.70;215855;1275;141298;-65
2022/07/08 03:29:44;;;;;;;5.70;4.20;;;;;;;16.23;71.70;100178.71;216221;1274;140232;-65
2022/07/08 03:34:46;;;;;;;6.90;6.00;;;;;;;16.19;71.41;100183.67;216273;1274;150612;-65
2022/07/08 03:39:50;;;;;;;8.60;4.90;;;;;;;16.18;71.78;100187.96;215944;1274;141354;-65
2022/07/08 03:44:53;;;;;;;4.90;4.50;;;;;;;16.24;71.88;100189.05;216116;1274;141374;-65
2022/07/08 03:49:56;;;;;;;6.80;5.60;;;;;;;16.27;71.79;100187.19;215515;1274;140732;-64
2022/07/08 03:54:59;;;;;;;6.70;6.20;;;;;;;16.33;71.95;100185.98;214680;1274;139966;-65
2022/07/08 04:00:02;;;;;;;6.60;5.90;;;;;;;16.45;72.13;100192.45;214210;1274;140291;-64
2022/07/08 04:05:05;;;;;;;5.80;5.40;;;;;;;16.60;72.11;100189.93;213332;1275;140083;-65
2022/07/08 04:10:08;;;;;;;8.60;6.90;;;;;;;16.73;71.78;100199.81;213499;1274;142112;-65
2022/07/08 04:15:12;;;;;;;5.40;5.00;;;;;;;16.88;71.76;100201.36;213646;1274;141315;-63
2022/07/08 04:20:16;;;;;;;5.70;5.20;;;;;;;16.94;71.29;100211.56;213566;1274;141049;-64
2022/07/08 04:25:21;;;;;;;7.30;6.60;;;;;;;16.95;71.30;100212.21;213828;1274;155955;-64
2022/07/08 04:30:25;;;;;;;15.80;6.90;;;;;;;17.05;71.30;100217.86;213619;1274;140958;-64
2022/07/08 04:35:27;;;;;;;7.40;6.60;;;;;;;17.22;71.38;100218.63;213538;1274;141947;-64
2022/07/08 04:40:30;;;;;;;5.60;4.70;;;;;;;17.42;71.18;100218.50;213769;1274;140295;-66
2022/07/08 04:45:33;;;;;;;7.00;6.40;;;;;;;17.43;70.82;100224.98;213706;1274;139524;-65
2022/07/08 04:50:36;;;;;;;6.70;6.20;;;;;;;17.47;71.01;100228.64;213140;1275;140507;-64
2022/07/08 04:55:39;;;;;;;7.40;6.30;;;;;;;17.58;70.86;100231.34;213449;1276;141385;-63
2022/07/08 05:00:42;;;;;;;7.30;6.20;;;;;;;17.58;70.41;100232.48;213278;1276;141779;-64
2022/07/08 05:05:45;;;;;;;6.80;6.20;;;;;;;17.78;70.82;100249.17;213128;1276;141971;-63
2022/07/08 05:10:48;;;;;;;7.40;6.70;;;;;;;18.11;70.69;100257.63;213678;1274;140756;-63
2022/07/08 05:15:51;;;;;;;8.00;7.20;;;;;;;18.50;69.96;100258.98;213524;1274;140596;-64
2022/07/08 05:20:53;;;;;;;9.20;7.70;;;;;;;18.82;69.43;100265.21;213537;1276;140113;-63
2022/07/08 05:25:55;;;;;;;8.00;7.30;;;;;;;19.08;69.23;100268.34;213746;1274;140320;-65
2022/07/08 05:30:58;;;;;;;10.70;7.50;;;;;;;19.36;68.78;100275.65;216048;1275;142080;-64
2022/07/08 05:36:01;;;;;;;7.30;6.80;;;;;;;19.96;67.64;100274.32;215593;1276;141636;-64
2022/07/08 05:41:03;;;;;;;8.40;7.60;;;;;;;20.30;67.31;100275.63;215723;1275;141597;-65
2022/07/08 05:46:06;;;;;;;8.10;7.30;;;;;;;20.53;66.53;100275.80;215851;1275;140058;-64
2022/07/08 05:51:09;;;;;;;8.60;7.80;;;;;;;20.86;66.06;100277.27;213336;1276;140358;-63
2022/07/08 05:56:24;;;;;;;9.30;8.40;;;;;;;21.16;65.67;100274.85;213185;1276;139875;-63
2022/07/08 06:01:34;;;;;;;7.50;6.80;;;;;;;21.67;64.62;100272.70;213473;1275;139625;-64
2022/07/08 06:06:37;;;;;;;10.30;9.00;;;;;;;22.03;63.84;100277.29;213389;1274;141533;-65
2022/07/08 06:11:41;;;;;;;7.40;6.80;;;;;;;21.79;63.40;100273.11;213455;1274;139641;-62
2022/07/08 06:16:48;;;;;;;6.90;6.30;;;;;;;21.41;63.15;100280.90;213479;1274;141539;-62
2022/07/08 06:21:52;;;;;;;12.20;8.10;;;;;;;21.00;63.64;100281.43;213333;1276;143497;-62
2022/07/08 06:26:55;;;;;;;9.00;8.10;;;;;;;20.96;64.06;100290.16;213201;1277;140806;-62
2022/07/08 06:31:59;;;;;;;9.00;8.20;;;;;;;21.00;64.14;100291.20;213514;1274;140630;-62
2022/07/08 06:37:06;;;;;;;9.80;6.80;;;;;;;21.11;64.27;100297.23;213458;1277;233055;-62
2022/07/08 06:42:09;;;;;;;6.60;6.10;;;;;;;21.18;63.83;100299.80;213470;1274;140930;-63
2022/07/08 06:47:12;;;;;;;8.70;7.00;;;;;;;21.13;63.77;100299.46;213456;1274;142462;-64
2022/07/08 06:52:22;;;;;;;9.20;8.30;;;;;;;21.33;63.81;100292.70;213581;1276;140743;-63
2022/07/08 06:57:25;;;;;;;8.80;8.00;;;;;;;21.47;63.73;100289.01;213260;1274;141285;-64
2022/07/08 07:02:28;;;;;;;9.00;8.10;;;;;;;22.00;63.48;100285.33;213178;1274;139658;-64
2022/07/08 07:07:36;;;;;;;7.90;7.30;;;;;;;22.51;62.88;100283.26;213580;1274;139435;-63
2022/07/08 07:12:40;;;;;;;8.00;7.30;;;;;;;22.40;62.04;100290.13;214470;1274;139840;-64
2022/07/08 07:17:43;;;;;;;9.20;7.20;;;;;;;21.90;61.69;100292.92;216110;1272;140246;-62
2022/07/08 07:22:46;;;;;;;8.50;7.80;;;;;;;21.52;61.96;100297.03;216081;1274;140541;-62
2022/07/08 07:27:53;;;;;;;7.70;7.10;;;;;;;21.23;62.33;100300.23;215724;1276;139502;-62
2022/07/08 07:32:56;;;;;;;8.60;7.00;;;;;;;21.20;62.85;100300.92;215885;1276;141031;-62
2022/07/08 07:37:58;;;;;;;6.40;5.80;;;;;;;21.36;62.98;100298.13;216040;1274;141101;-62
2022/07/08 07:43:02;;;;;;;7.00;6.30;;;;;;;21.73;63.10;100301.52;215277;1274;141226;-61
2022/07/08 07:54:49;;;;;;;6.60;6.10;;;;;;;21.56;62.42;100307.89;213399;1274;143039;-65
2022/07/08 07:59:52;;;;;;;;;;;;;;;21.61;62.31;100304.77;213379;1275;139807;-64
2022/07/08 08:04:56;;;;;;;6.50;5.90;;;;;;;21.37;62.16;100308.41;214115;1276;126003;-64
2022/07/08 08:10:01;;;;;;;6.40;5.90;;;;;;;21.19;62.41;100310.20;213370;1276;139408;-64
2022/07/08 08:15:06;;;;;;;6.10;5.70;;;;;;;21.02;62.53;100310.95;213495;1276;142265;-64
2022/07/08 08:20:12;;;;;;;5.00;4.60;;;;;;;20.83;62.76;100315.13;213251;1277;141162;-64
2022/07/08 08:25:15;;;;;;;4.50;4.10;;;;;;;20.60;62.58;100315.06;213426;1276;164919;-64
2022/07/08 08:30:18;;;;;;;5.10;4.80;;;;;;;20.43;62.96;100310.52;213304;1276;141143;-63
2022/07/08 08:35:21;;;;;;;5.10;4.80;;;;;;;20.38;63.30;100313.71;213498;1275;141357;-65
2022/07/08 08:40:25;;;;;;;4.90;4.40;;;;;;;20.47;63.58;100313.52;214644;1274;139551;-64
2022/07/08 08:45:28;;;;;;;6.80;4.90;;;;;;;20.63;63.56;100321.05;216091;1274;140205;-65
2022/07/08 08:55:56;;;;;;;5.60;5.20;;;;;;;21.03;63.62;100328.34;216013;1276;140814;-64
2022/07/08 09:01:00;;;;;;;6.00;5.50;;;;;;;21.27;63.83;100326.01;216193;1275;140151;-64
2022/07/08 09:06:04;;;;;;;5.60;5.20;;;;;;;21.56;63.63;100325.34;216197;1274;140007;-64
2022/07/08 09:11:08;;;;;;;6.20;5.50;;;;;;;21.88;63.55;100320.20;216171;1274;141081;-63
2022/07/08 09:16:10;;;;;;;5.70;5.10;;;;;;;22.28;63.16;100319.63;213822;1274;140863;-63
2022/07/08 09:21:16;;;;;;;6.30;5.80;;;;;;;22.90;62.63;100311.30;214040;1276;139728;-63
2022/07/08 09:26:27;;;;;;;4.90;4.50;;;;;;;23.35;61.76;100316.68;213298;1276;139267;-63
2022/07/08 09:31:34;;;;;;;5.80;5.30;;;;;;;23.40;60.96;100317.02;213710;1276;141769;-63
2022/07/08 09:36:52;;;;;;;5.90;5.40;;;;;;;23.33;60.53;100318.52;213304;1274;139987;-62
2022/07/08 09:41:54;;;;;;;9.50;6.20;;;;;;;22.86;60.04;100328.55;213623;1274;140885;-63
2022/07/08 09:46:57;;;;;;;6.80;6.30;;;;;;;22.25;60.73;100331.95;213278;1276;141786;-63
2022/07/08 09:52:01;;;;;;;6.00;5.50;;;;;;;21.74;61.53;100327.91;213185;1276;141336;-63
2022/07/08 09:57:06;;;;;;;6.50;5.70;;;;;;;21.42;62.82;100329.27;213320;1276;139979;-62
2022/07/08 10:02:11;;;;;;;5.40;5.10;;;;;;;21.67;64.25;100319.42;213289;1274;140369;-64
2022/07/08 10:07:14;;;;;;;5.90;5.40;;;;;;;22.38;64.90;100314.93;213461;1276;140547;-62
2022/07/08 10:12:21;;;;;;;4.20;3.90;;;;;;;22.83;64.26;100305.95;213221;1276;141324;-65
2022/07/08 10:17:27;;;;;;;4.90;4.50;;;;;;;22.85;63.74;100306.52;213353;1276;142363;-62
2022/07/08 10:22:32;;;;;;;3.30;3.10;;;;;;;22.99;62.93;100298.36;213135;1275;142339;-62
2022/07/08 10:27:38;;;;;;;3.90;3.70;;;;;;;23.06;61.95;100287.89;213146;1276;141263;-62
2022/07/08 10:32:41;;;;;;;4.50;4.20;;;;;;;22.97;61.49;100287.15;213457;1276;141642;-63
2022/07/08 10:37:59;;;;;;;3.70;3.40;;;;;;;22.67;61.07;100290.65;213606;1276;140086;-63
2022/07/08 10:43:06;;;;;;;7.20;5.90;;;;;;;22.32;60.97;100302.59;213845;1276;140093;-64
2022/07/08 10:48:09;;;;;;;6.80;5.10;;;;;;;21.92;60.92;100311.34;215911;1276;140584;-64
2022/07/08 10:54:26;;;;;;;7.90;5.40;;;;;;;21.41;61.26;100323.86;214112;1313;663371;-64
2022/07/08 10:59:38;;;;;;;5.50;4.90;;;;;;;21.06;62.40;100321.91;212849;1289;139632;-63
2022/07/08 11:04:40;;;;;;;7.60;5.90;;;;;;;21.01;63.04;100322.46;212231;1289;1026343;-65
2022/07/08 11:09:45;;;;;;;6.10;5.40;;;;;;;21.15;63.48;100322.07;212138;1286;140813;-64
2022/07/08 11:14:49;;;;;;;6.80;6.10;;;;;;;21.54;63.99;100316.69;211216;1287;139618;-65
2022/07/08 11:19:54;;;;;;;6.90;6.30;;;;;;;22.40;64.42;100307.94;211423;1288;140588;-64
2022/07/08 11:24:58;;;;;;;8.80;5.20;;;;;;;22.65;62.70;100297.16;211543;1287;142292;-63
2022/07/08 11:30:07;;;;;;;5.70;5.20;;;;;;;22.51;61.94;100302.59;211096;1288;140123;-61
2022/07/08 11:35:10;;;;;;;6.80;6.10;;;;;;;22.59;61.45;100301.20;211251;1287;139908;-62
2022/07/08 11:40:18;;;;;;;7.20;6.50;;;;;;;22.61;61.04;100300.71;211216;1287;233807;-62
2022/07/08 11:45:21;;;;;;;5.30;4.80;;;;;;;22.44;60.17;100306.14;211364;1288;139635;-62
2022/07/08 11:50:27;;;;;;;7.20;5.20;;;;;;;22.14;60.18;100312.42;211002;1289;140463;-65
2022/07/08 11:55:43;;;;;;;7.60;6.60;;;;;;;21.89;60.22;100307.44;210913;1289;138988;-64
2022/07/08 12:00:47;;;;;;;9.00;6.80;;;;;;;21.81;60.57;100305.16;211013;1289;139456;-64
2022/07/08 12:05:49;;;;;;;7.70;6.10;;;;;;;22.09;61.19;100305.77;210941;1287;138975;-64
2022/07/08 12:11:11;;;;;;;7.40;6.50;;;;;;;22.29;60.85;100303.90;211102;1287;139615;-63
2022/07/08 12:16:54;;;;;;;6.40;5.40;;;;;;;22.46;60.71;100304.41;211052;1287;139434;-65
2022/07/08 12:22:01;;;;;;;5.50;4.40;;;;;;;22.65;60.18;100305.20;210657;1289;140648;-64
2022/07/08 12:34:05;;;;;;;5.00;4.30;;;;;;;23.20;59.41;100300.87;213035;1280;139305;-64
2022/07/08 12:39:18;;;;;;;5.70;4.60;;;;;;;23.25;58.54;100294.70;214966;1279;140149;-65
2022/07/08 12:44:36;;;;;;;5.10;4.50;;;;;;;23.61;58.44;100295.55;215000;1279;139570;-64
2022/07/08 12:49:47;;;;;;;7.60;4.70;;;;;;;23.83;57.69;100293.52;215217;1280;139532;-64
2022/07/08 12:54:52;;;;;;;5.30;4.40;;;;;;;23.91;56.65;100293.38;215099;1279;139812;-64
2022/07/08 12:59:58;;;;;;;6.90;4.80;;;;;;;24.06;56.53;100290.01;214114;1280;138736;-64
2022/07/08 13:05:04;;;;;;;6.40;4.70;;;;;;;24.06;55.77;100293.92;212827;1280;139894;-63
2022/07/08 13:10:10;;;;;;;4.10;3.70;;;;;;;23.97;55.36;100290.39;213409;1280;139908;-63
2022/07/08 13:15:15;;;;;;;6.90;4.50;;;;;;;23.80;54.56;100289.66;212955;1280;138885;-63
2022/07/08 13:20:20;;;;;;;3.50;3.30;;;;;;;23.59;54.51;100295.83;213041;1279;139461;-63
2022/07/08 13:25:24;;;;;;;4.30;3.90;;;;;;;23.42;54.64;100286.13;213250;1280;139472;-64
2022/07/08 13:30:28;;;;;;;5.40;4.90;;;;;;;23.61;54.94;100276.19;212840;1280;140047;-64
2022/07/08 13:35:33;;;;;;;5.50;4.80;;;;;;;23.41;54.61;100275.74;213053;1280;139943;-64
2022/07/08 13:40:51;;;;;;;6.50;3.50;;;;;;;23.16;54.49;100266.45;212837;1278;139624;-64
2022/07/08 13:45:55;;;;;;;4.40;3.90;;;;;;;22.99;54.42;100262.53;212820;1278;139623;-64
2022/07/08 13:50:59;;;;;;;3.60;3.00;;;;;;;22.83;54.00;100262.75;212919;1280;140178;-64
2022/07/08 13:56:04;;;;;;;4.70;3.00;;;;;;;22.71;53.94;100264.05;212838;1280;139320;-65
2022/07/08 14:01:08;;;;;;;5.40;3.60;;;;;;;22.69;54.15;100259.90;212914;1280;140068;-64
2022/07/08 14:06:13;;;;;;;6.90;2.60;;;;;;;22.77;54.09;100258.07;212798;1281;140799;-65
2022/07/08 14:11:21;;;;;;;3.20;2.80;;;;;;;22.67;53.43;100264.88;212990;1279;140723;-64
2022/07/08 14:16:28;;;;;;;2.50;2.30;;;;;;;22.75;52.76;100269.80;212769;1279;140013;-65
2022/07/08 14:21:32;;;;;;;4.50;2.50;;;;;;;22.91;52.06;100267.80;212855;1280;140259;-66
2022/07/08 14:26:41;;;;;;;5.10;2.80;;;;;;;23.06;52.12;100266.52;213305;1279;142766;-64
2022/07/08 14:31:47;;;;;;;2.70;1.90;;;;;;;23.30;52.01;100255.55;213524;1279;141525;-64
2022/07/08 14:36:53;;;;;;;2.20;1.90;;;;;;;23.42;51.12;100256.95;212852;1281;140164;-64
2022/07/08 14:42:03;;;;;;;1.90;1.80;;;;;;;23.31;50.40;100258.61;215097;1280;140208;-62
2022/07/08 14:47:09;;;;;;;1.90;1.40;;;;;;;23.32;50.04;100254.55;215243;1280;142454;-64
2022/07/08 14:52:15;;;;;;;2.70;1.60;;;;;;;23.38;49.93;100266.13;214173;1280;140176;-63
2022/07/08 14:57:20;;;;;;;3.30;1.70;;;;;;;23.42;49.70;100267.30;213532;1280;141077;-62
2022/07/08 15:02:25;;;;;;;2.50;2.20;;;;;;;23.49;49.68;100277.64;213282;1280;141688;-62
2022/07/08 15:07:32;;;;;;;2.00;1.90;;;;;;;23.50;49.99;100273.75;212775;1280;139416;-64
2022/07/08 15:12:36;;;;;;;3.80;3.20;;;;;;;23.30;49.97;100284.54;213388;1280;141711;-63
2022/07/08 15:17:42;;;;;;;5.20;4.30;;;;;;;23.01;50.50;100292.38;213000;1280;140010;-65
2022/07/08 15:22:49;;;;;;;2.70;1.40;;;;;;;22.71;50.38;100297.77;213246;1279;140595;-64
2022/07/08 15:27:54;;;;;;;;;;;;;;;22.43;50.53;100302.77;212839;1280;140380;-64
2022/07/08 15:33:00;;;;;;;1.60;1.50;;;;;;;22.12;50.71;100300.61;213711;1280;127660;-62
2022/07/08 15:38:06;;;;;;;2.20;1.80;;;;;;;22.00;51.06;100299.88;212915;1280;143435;-62
2022/07/08 15:43:12;;;;;;;4.20;1.80;;;;;;;21.92;51.09;100299.56;213099;1280;141843;-65
2022/07/08 15:48:25;;;;;;;1.40;1.30;;;;;;;22.01;51.31;100302.14;213080;1280;140426;-63
2022/07/08 15:53:31;;;;;;;8.00;2.00;;;;;;;22.32;51.06;100300.21;213071;1280;139675;-64
2022/07/08 15:58:38;;;;;;;2.80;2.20;;;;;;;22.42;51.25;100314.52;212920;1280;139431;-64
2022/07/08 16:03:43;;;;;;;2.20;2.00;;;;;;;22.33;50.97;100326.60;213128;1280;139873;-63
2022/07/08 16:08:49;;;;;;;4.80;2.30;;;;;;;22.10;50.86;100336.64;212835;1280;144328;-64
2022/07/08 16:13:53;;;;;;;6.60;2.00;;;;;;;21.81;50.93;100341.60;213170;1280;140003;-63
2022/07/08 16:18:58;;;;;;;5.40;2.00;;;;;;;21.59;51.15;100340.88;213167;1280;144361;-64
2022/07/08 16:24:02;;;;;;;2.30;1.40;;;;;;;21.43;51.39;100343.09;212917;1280;141301;-64
2022/07/08 16:29:08;;;;;;;1.50;1.20;;;;;;;21.27;51.35;100344.98;215130;1279;140956;-64
2022/07/08 16:34:12;;;;;;;3.30;1.10;;;;;;;21.14;51.45;100357.00;215255;1280;139719;-64
2022/07/08 16:39:21;;;;;;;3.00;1.00;;;;;;;20.91;51.64;100372.00;215206;1280;140648;-64
2022/07/08 16:44:28;;;;;;;1.50;0.90;;;;;;;20.74;52.36;100375.27;215409;1279;139664;-64
2022/07/08 16:49:32;;;;;;;0.80;0.80;;;;;;;20.57;52.93;100378.68;215388;1279;140937;-64
2022/07/08 16:54:37;;;;;;;6.30;1.40;;;;;;;20.44;53.56;100378.10;213932;1279;140250;-63
2022/07/08 16:59:44;;;;;;;0.50;0.50;;;;;;;20.38;54.08;100380.75;213578;1279;139855;-64
2022/07/08 17:04:49;;;;;;;1.60;0.60;;;;;;;20.22;54.53;100384.20;212863;1280;140091;-64
2022/07/08 17:09:53;;;;;;;0.60;0.60;;;;;;;20.03;54.75;100375.53;213099;1279;140098;-63
2022/07/08 17:14:58;;;;;;;1.50;0.60;;;;;;;19.85;54.98;100368.84;213092;1280;140702;-63
2022/07/08 17:20:03;;;;;;;1.10;0.50;;;;;;;19.65;55.30;100377.48;212996;1280;139843;-64
2022/07/08 17:25:10;;;;;;;3.70;0.70;;;;;;;19.50;55.58;100377.24;212910;1280;141995;-63
2022/07/08 17:30:16;;;;;;;1.10;0.60;;;;;;;19.38;55.92;100376.80;212927;1280;139597;-65
2022/07/08 17:35:21;;;;;;;0.60;0.60;;;;;;;19.30;56.11;100379.36;213317;1280;139344;-63
2022/07/08 17:40:26;;;;;;;1.50;0.50;;;;;;;19.22;56.09;100386.44;212976;1280;141187;-63
2022/07/08 17:45:35;;;;;;;0.90;0.80;;;;;;;19.15;56.00;100379.38;213145;1280;139963;-65
2022/07/08 17:50:43;;;;;;;1.10;0.40;;;;;;;19.09;55.87;100388.20;213234;1279;139357;-64
2022/07/08 17:55:48;;;;;;;0.60;0.60;;;;;;;19.06;56.04;100390.31;213102;1280;139823;-65
2022/07/08 18:00:58;;;;;;;2.20;0.80;;;;;;;19.04;56.10;100394.81;213157;1279;138963;-63
2022/07/08 18:06:03;;;;;;;1.10;0.60;;;;;;;19.00;55.93;100403.62;213203;1279;139430;-64
2022/07/08 18:11:08;;;;;;;2.30;0.70;;;;;;;18.96;56.09;100410.39;213051;1280;141162;-64
2022/07/08 18:16:14;;;;;;;0.70;0.60;;;;;;;18.94;56.19;100407.11;215118;1280;142798;-64
2022/07/08 18:21:21;;;;;;;1.30;0.80;;;;;;;18.90;56.23;100414.04;215199;1280;141513;-64
2022/07/08 18:26:36;;;;;;;0.70;0.60;;;;;;;18.83;56.43;100416.20;214967;1281;139846;-64
2022/07/08 18:31:44;;;;;;;4.00;0.60;;;;;;;18.72;56.51;100418.20;215377;1280;139581;-63
2022/07/08 18:36:50;;;;;;;1.60;0.90;;;;;;;18.60;56.80;100424.64;215588;1279;139997;-65
2022/07/08 18:41:56;;;;;;;2.10;1.80;;;;;;;18.45;57.02;100427.91;215408;1280;140617;-65
2022/07/08 18:47:04;;;;;;;2.40;1.40;;;;;;;18.31;57.33;100431.42;214094;1280;140229;-63
2022/07/08 18:52:15;;;;;;;6.70;1.80;;;;;;;18.16;57.70;100442.90;214069;1280;139165;-64
2022/07/08 18:57:20;;;;;;;2.30;1.40;;;;;;;18.00;58.55;100450.95;213104;1280;140310;-63
2022/07/08 19:02:27;;;;;;;2.60;2.40;;;;;;;17.82;59.27;100451.01;213231;1279;152079;-63
2022/07/08 19:07:43;;;;;;;2.60;2.00;;;;;;;17.65;59.83;100449.34;212909;1280;139923;-64
2022/07/08 19:12:55;;;;;;;4.40;2.80;;;;;;;17.52;60.44;100447.36;213300;1280;140274;-62
2022/07/08 19:18:04;;;;;;;7.10;2.80;;;;;;;17.42;61.03;100443.11;213189;1280;141739;-64
2022/07/08 19:23:13;;;;;;;4.10;2.60;;;;;;;17.31;61.52;100445.70;213033;1280;141576;-64
2022/07/08 19:28:25;;;;;;;2.80;2.60;;;;;;;17.19;61.89;100451.45;213098;1280;139195;-65
2022/07/08 19:33:29;;;;;;;2.60;2.40;;;;;;;17.17;62.37;100458.28;212994;1280;141107;-64
2022/07/08 19:38:35;;;;;;;6.10;3.60;;;;;;;17.17;62.64;100460.27;212871;1280;141311;-64
2022/07/08 19:43:42;;;;;;;5.80;3.20;;;;;;;17.15;62.95;100461.29;212853;1280;140223;-65
2022/07/08 19:48:51;;;;;;;5.00;3.70;;;;;;;17.10;62.99;100465.04;213000;1280;139899;-64
2022/07/08 19:53:58;;;;;;;5.50;3.30;;;;;;;17.00;63.22;100470.52;212985;1280;140005;-63
2022/07/08 19:59:07;;;;;;;4.40;3.10;;;;;;;16.94;63.48;100474.02;213160;1281;140142;-64
2022/07/08 20:04:12;;;;;;;5.20;2.70;;;;;;;16.92;63.68;100480.20;213070;1279;140365;-64
2022/07/08 20:09:19;;;;;;;5.40;3.20;;;;;;;16.90;63.87;100484.66;213234;1277;140805;-64
2022/07/08 20:14:24;;;;;;;3.50;2.90;;;;;;;16.87;63.97;100483.71;214598;1277;141311;-64
2022/07/08 20:19:29;;;;;;;6.10;2.70;;;;;;;16.82;64.04;100482.77;215858;1276;139799;-65
2022/07/08 20:24:34;;;;;;;7.90;3.10;;;;;;;16.77;64.17;100489.70;215873;1276;140046;-65
2022/07/08 20:29:40;;;;;;;3.40;2.90;;;;;;;16.75;64.24;100485.95;215702;1276;141895;-64
2022/07/08 20:34:46;;;;;;;4.40;3.60;;;;;;;16.71;64.23;100487.27;215582;1276;141416;-65
2022/07/08 20:39:51;;;;;;;7.20;3.60;;;;;;;16.67;64.46;100484.48;215666;1277;141126;-64
2022/07/08 20:44:57;;;;;;;6.80;3.80;;;;;;;16.63;64.61;100484.05;215182;1276;139796;-64
2022/07/08 20:50:07;;;;;;;4.80;2.50;;;;;;;16.63;64.93;100486.56;213812;1276;140371;-66
2022/07/08 20:55:13;;;;;;;10.10;3.10;;;;;;;16.66;65.11;100488.13;213874;1274;139676;-64
2022/07/08 21:00:23;;;;;;;6.40;3.80;;;;;;;16.67;65.26;100486.41;213549;1276;139657;-64
2022/07/08 21:05:27;;;;;;;9.60;2.90;;;;;;;16.66;65.34;100482.64;213497;1277;140368;-64
2022/07/08 21:10:32;;;;;;;4.60;3.00;;;;;;;16.66;65.39;100478.02;213419;1276;140494;-64
2022/07/08 21:15:37;;;;;;;6.10;2.90;;;;;;;16.65;65.54;100475.58;213310;1276;141130;-64
2022/07/08 21:20:41;;;;;;;7.00;3.00;;;;;;;16.69;65.76;100478.31;213160;1276;140004;-64
2022/07/08 21:25:46;;;;;;;6.10;3.00;;;;;;;16.73;65.79;100479.64;213605;1276;139150;-64
2022/07/08 21:30:50;;;;;;;2.90;2.60;;;;;;;16.72;65.85;100477.75;213565;1276;140537;-63
2022/07/08 21:35:54;;;;;;;3.00;2.50;;;;;;;16.71;65.95;100473.33;213232;1277;139926;-64
2022/07/08 21:40:59;;;;;;;4.80;2.50;;;;;;;16.72;66.10;100476.77;213229;1276;139786;-64
2022/07/08 21:46:03;;;;;;;5.50;2.70;;;;;;;16.71;66.02;100474.02;213042;1276;223078;-64
2022/07/08 21:51:08;;;;;;;4.90;3.00;;;;;;;16.68;66.20;100472.91;213325;1276;140152;-63
2022/07/08 21:56:11;;;;;;;7.00;2.90;;;;;;;16.63;66.41;100476.95;213093;1276;140088;-64
2022/07/08 22:01:18;;;;;;;8.00;3.50;;;;;;;16.56;66.41;100474.48;213260;1277;141122;-64
2022/07/08 22:06:24;;;;;;;3.50;3.10;;;;;;;16.52;66.53;100470.81;213324;1276;139263;-65
2022/07/08 22:11:28;;;;;;;8.80;3.40;;;;;;;16.49;66.75;100473.38;213288;1275;142012;-64
2022/07/08 22:16:33;;;;;;;9.50;3.00;;;;;;;16.47;67.05;100463.73;213442;1276;161277;-64
2022/07/08 22:21:38;;;;;;;3.80;3.20;;;;;;;16.48;67.08;100466.21;213182;1276;141258;-63
2022/07/08 22:26:42;;;;;;;4.70;3.00;;;;;;;16.45;67.12;100460.75;215028;1276;141399;-63
2022/07/08 22:31:46;;;;;;;5.00;2.90;;;;;;;16.48;67.32;100457.61;215709;1276;141396;-64
2022/07/08 22:36:50;;;;;;;6.30;3.20;;;;;;;16.49;67.30;100461.23;215766;1277;140631;-64
2022/07/08 22:41:55;;;;;;;6.30;3.10;;;;;;;16.50;67.36;100462.68;215165;1276;140069;-63
2022/07/08 22:47:00;;;;;;;8.40;2.40;;;;;;;16.53;67.20;100458.75;213921;1276;140526;-64
2022/07/08 22:52:05;;;;;;;5.80;2.80;;;;;;;16.48;67.12;100464.05;213451;1276;142703;-62
2022/07/08 22:57:09;;;;;;;11.10;3.30;;;;;;;16.39;67.28;100463.48;213495;1276;141364;-64
2022/07/08 23:02:15;;;;;;;7.50;3.40;;;;;;;16.28;67.26;100460.90;213559;1276;141217;-64
2022/07/08 23:07:20;;;;;;;6.30;3.20;;;;;;;16.11;67.45;100463.38;211600;1276;2622931;-64
2022/07/08 23:12:26;;;;;;;6.50;2.20;;;;;;;15.98;67.55;100465.00;213552;1276;144044;-63
2022/07/08 23:17:30;;;;;;;9.80;3.80;;;;;;;15.87;67.78;100465.42;213320;1276;141606;-64
2022/07/08 23:22:34;;;;;;;8.20;3.00;;;;;;;15.74;67.78;100461.52;213629;1276;139273;-64
2022/07/08 23:27:38;;;;;;;3.70;2.50;;;;;;;15.66;68.03;100463.02;213511;1276;140618;-61